sensor_id;sensor_type;location;lat;lon;timestamp;pressure;altitude;pressure_sealevel;temperature;humidity
61484;BME280;47349;55.640;37.692;2024-01-11T00:00:41;97487.06;;;-7.72;100.00
61484;BME280;47349;55.640;37.692;2024-01-11T00:03:08;97466.81;;;-7.69;100.00
61484;BME280;47349;55.640;37.692;2024-01-11T00:05:37;97472.88;;;-7.68;100.00
61484;BME280;47349;55.640;37.692;2024-01-11T00:08:05;97461.28;;;-7.64;100.00
61484;BME280;47349;55.640;37.692;2024-01-11T00:10:33;97448.06;;;-7.61;100.00
61484;BME280;47349;55.640;37.692;2024-01-11T00:13:00;97426.19;;;-7.59;100.00
61484;BME280;47349;55.640;37.692;2024-01-11T00:15:27;97415.31;;;-7.53;100.00
61484;BME280;47349;55.640;37.692;2024-01-11T00:17:54;97417.78;;;-7.51;100.00
61484;BME280;47349;55.640;37.692;2024-01-11T00:20:21;97409.75;;;-7.48;100.00
61484;BME280;47349;55.640;37.692;2024-01-11T00:22:49;97397.91;;;-7.41;100.00
61484;BME280;47349;55.640;37.692;2024-01-11T00:25:16;97393.44;;;-7.39;100.00
61484;BME280;47349;55.640;37.692;2024-01-11T00:27:43;97364.06;;;-7.41;100.00
61484;BME280;47349;55.640;37.692;2024-01-11T00:30:10;97375.22;;;-7.39;100.00
61484;BME280;47349;55.640;37.692;2024-01-11T00:32:38;97351.78;;;-7.39;100.00
61484;BME280;47349;55.640;37.692;2024-01-11T00:35:05;97361.03;;;-7.35;100.00
61484;BME280;47349;55.640;37.692;2024-01-11T00:37:32;97327.88;;;-7.33;100.00
61484;BME280;47349;55.640;37.692;2024-01-11T00:39:59;97318.31;;;-7.32;100.00
61484;BME280;47349;55.640;37.692;2024-01-11T00:42:26;97327.38;;;-7.27;100.00
61484;BME280;47349;55.640;37.692;2024-01-11T00:44:54;97326.19;;;-7.22;100.00
61484;BME280;47349;55.640;37.692;2024-01-11T00:47:21;97315.41;;;-7.18;100.00
61484;BME280;47349;55.640;37.692;2024-01-11T00:49:48;97312.44;;;-7.13;100.00
61484;BME280;47349;55.640;37.692;2024-01-11T00:52:16;97296.31;;;-7.07;100.00
61484;BME280;47349;55.640;37.692;2024-01-11T00:54:43;97280.47;;;-7.04;100.00
61484;BME280;47349;55.640;37.692;2024-01-11T00:57:10;97292.00;;;-6.97;100.00
61484;BME280;47349;55.640;37.692;2024-01-11T00:59:39;97277.66;;;-6.91;100.00
61484;BME280;47349;55.640;37.692;2024-01-11T01:02:07;97280.84;;;-6.88;100.00
61484;BME280;47349;55.640;37.692;2024-01-11T01:04:38;97276.81;;;-6.81;100.00
61484;BME280;47349;55.640;37.692;2024-01-11T01:07:05;97273.00;;;-6.77;100.00
61484;BME280;47349;55.640;37.692;2024-01-11T01:09:32;97263.94;;;-6.73;100.00
61484;BME280;47349;55.640;37.692;2024-01-11T01:11:59;97250.81;;;-6.71;100.00
61484;BME280;47349;55.640;37.692;2024-01-11T01:14:26;97250.69;;;-6.69;100.00
61484;BME280;47349;55.640;37.692;2024-01-11T01:16:53;97239.06;;;-6.65;100.00
61484;BME280;47349;55.640;37.692;2024-01-11T01:19:20;97239.34;;;-6.59;100.00
61484;BME280;47349;55.640;37.692;2024-01-11T01:21:50;97224.31;;;-6.55;100.00
61484;BME280;47349;55.640;37.692;2024-01-11T01:24:18;97204.84;;;-6.51;100.00
61484;BME280;47349;55.640;37.692;2024-01-11T01:26:45;97196.50;;;-6.45;100.00
61484;BME280;47349;55.640;37.692;2024-01-11T01:29:12;97151.00;;;-6.41;100.00
61484;BME280;47349;55.640;37.692;2024-01-11T01:31:39;97173.91;;;-6.35;100.00
61484;BME280;47349;55.640;37.692;2024-01-11T01:34:06;97169.28;;;-6.31;100.00
61484;BME280;47349;55.640;37.692;2024-01-11T01:36:36;97172.16;;;-6.25;100.00
61484;BME280;47349;55.640;37.692;2024-01-11T01:39:03;97161.34;;;-6.20;100.00
61484;BME280;47349;55.640;37.692;2024-01-11T01:41:31;97150.09;;;-6.11;100.00
61484;BME280;47349;55.640;37.692;2024-01-11T01:43:58;97149.16;;;-6.10;100.00
61484;BME280;47349;55.640;37.692;2024-01-11T01:46:25;97135.03;;;-6.07;100.00
61484;BME280;47349;55.640;37.692;2024-01-11T01:48:55;97120.63;;;-6.02;100.00
61484;BME280;47349;55.640;37.692;2024-01-11T01:51:24;97113.06;;;-5.95;100.00
61484;BME280;47349;55.640;37.692;2024-01-11T01:53:53;97121.03;;;-5.87;100.00
61484;BME280;47349;55.640;37.692;2024-01-11T01:56:21;97108.94;;;-5.88;100.00
61484;BME280;47349;55.640;37.692;2024-01-11T01:58:49;97101.28;;;-5.80;100.00
61484;BME280;47349;55.640;37.692;2024-01-11T02:01:18;97100.16;;;-5.77;100.00
61484;BME280;47349;55.640;37.692;2024-01-11T02:03:46;97077.63;;;-5.69;100.00
61484;BME280;47349;55.640;37.692;2024-01-11T02:06:20;97072.97;;;-5.65;100.00
61484;BME280;47349;55.640;37.692;2024-01-11T02:08:48;97071.84;;;-5.62;100.00
61484;BME280;47349;55.640;37.692;2024-01-11T02:11:20;97060.84;;;-5.56;100.00
61484;BME280;47349;55.640;37.692;2024-01-11T02:13:50;97050.56;;;-5.48;100.00
61484;BME280;47349;55.640;37.692;2024-01-11T02:16:20;97061.53;;;-5.45;100.00
61484;BME280;47349;55.640;37.692;2024-01-11T02:18:47;97039.66;;;-5.34;100.00
61484;BME280;47349;55.640;37.692;2024-01-11T02:21:18;97038.97;;;-5.26;100.00
61484;BME280;47349;55.640;37.692;2024-01-11T02:23:53;97030.03;;;-5.33;100.00
61484;BME280;47349;55.640;37.692;2024-01-11T02:26:20;97023.16;;;-5.25;100.00
61484;BME280;47349;55.640;37.692;2024-01-11T02:28:50;97018.19;;;-5.18;100.00
61484;BME280;47349;55.640;37.692;2024-01-11T02:31:17;96998.38;;;-5.11;100.00
61484;BME280;47349;55.640;37.692;2024-01-11T02:33:44;97001.53;;;-5.07;100.00
61484;BME280;47349;55.640;37.692;2024-01-11T02:36:12;96996.78;;;-4.94;100.00
61484;BME280;47349;55.640;37.692;2024-01-11T02:38:40;96987.03;;;-4.92;100.00
61484;BME280;47349;55.640;37.692;2024-01-11T02:41:14;96980.94;;;-4.83;100.00
61484;BME280;47349;55.640;37.692;2024-01-11T02:43:48;96986.91;;;-4.73;100.00
61484;BME280;47349;55.640;37.692;2024-01-11T02:46:15;96963.47;;;-4.65;100.00
61484;BME280;47349;55.640;37.692;2024-01-11T02:48:44;96963.56;;;-4.56;100.00
61484;BME280;47349;55.640;37.692;2024-01-11T02:51:11;96974.47;;;-4.43;100.00
61484;BME280;47349;55.640;37.692;2024-01-11T02:53:41;96966.31;;;-4.40;100.00
61484;BME280;47349;55.640;37.692;2024-01-11T02:56:11;96957.28;;;-4.28;100.00
61484;BME280;47349;55.640;37.692;2024-01-11T02:58:43;96954.31;;;-4.15;100.00
61484;BME280;47349;55.640;37.692;2024-01-11T03:01:10;96947.28;;;-4.15;100.00
61484;BME280;47349;55.640;37.692;2024-01-11T03:03:37;96938.47;;;-4.14;100.00
61484;BME280;47349;55.640;37.692;2024-01-11T03:06:04;96938.53;;;-4.05;100.00
61484;BME280;47349;55.640;37.692;2024-01-11T03:08:31;96935.47;;;-4.01;100.00
61484;BME280;47349;55.640;37.692;2024-01-11T03:10:58;96942.53;;;-3.93;100.00
61484;BME280;47349;55.640;37.692;2024-01-11T03:13:26;96902.66;;;-3.87;100.00
61484;BME280;47349;55.640;37.692;2024-01-11T03:15:55;96911.56;;;-3.80;100.00
61484;BME280;47349;55.640;37.692;2024-01-11T03:18:25;96910.94;;;-3.74;100.00
61484;BME280;47349;55.640;37.692;2024-01-11T03:20:52;96917.22;;;-3.67;100.00
61484;BME280;47349;55.640;37.692;2024-01-11T03:23:22;96907.44;;;-3.56;100.00
61484;BME280;47349;55.640;37.692;2024-01-11T03:25:50;96891.41;;;-3.53;100.00
61484;BME280;47349;55.640;37.692;2024-01-11T03:28:18;96887.66;;;-3.51;100.00
61484;BME280;47349;55.640;37.692;2024-01-11T03:30:48;96886.56;;;-3.40;100.00
61484;BME280;47349;55.640;37.692;2024-01-11T03:33:17;96874.63;;;-3.34;100.00
61484;BME280;47349;55.640;37.692;2024-01-11T03:35:47;96887.59;;;-3.25;100.00
61484;BME280;47349;55.640;37.692;2024-01-11T03:38:17;96872.91;;;-3.18;100.00
61484;BME280;47349;55.640;37.692;2024-01-11T03:40:44;96864.72;;;-3.15;100.00
61484;BME280;47349;55.640;37.692;2024-01-11T03:43:11;96850.84;;;-3.07;100.00
61484;BME280;47349;55.640;37.692;2024-01-11T03:45:39;96851.66;;;-3.06;100.00
61484;BME280;47349;55.640;37.692;2024-01-11T03:48:06;96856.09;;;-2.91;100.00
61484;BME280;47349;55.640;37.692;2024-01-11T03:50:33;96856.28;;;-2.84;100.00
61484;BME280;47349;55.640;37.692;2024-01-11T03:53:00;96845.19;;;-2.70;100.00
61484;BME280;47349;55.640;37.692;2024-01-11T03:55:28;96841.72;;;-2.62;100.00
61484;BME280;47349;55.640;37.692;2024-01-11T03:57:56;96848.78;;;-2.54;100.00
61484;BME280;47349;55.640;37.692;2024-01-11T04:00:23;96827.16;;;-2.40;100.00
61484;BME280;47349;55.640;37.692;2024-01-11T04:02:52;96823.53;;;-2.31;100.00
61484;BME280;47349;55.640;37.692;2024-01-11T04:05:20;96849.28;;;-2.26;100.00
61484;BME280;47349;55.640;37.692;2024-01-11T04:07:47;96869.91;;;-2.15;100.00
61484;BME280;47349;55.640;37.692;2024-01-11T04:10:19;96831.03;;;-2.03;100.00
61484;BME280;47349;55.640;37.692;2024-01-11T04:12:57;96850.88;;;-1.93;100.00
61484;BME280;47349;55.640;37.692;2024-01-11T04:15:24;96829.03;;;-1.85;100.00
61484;BME280;47349;55.640;37.692;2024-01-11T04:17:51;96820.16;;;-1.76;100.00
61484;BME280;47349;55.640;37.692;2024-01-11T04:20:20;96838.84;;;-1.71;100.00
61484;BME280;47349;55.640;37.692;2024-01-11T04:22:50;96817.16;;;-1.65;100.00
61484;BME280;47349;55.640;37.692;2024-01-11T04:25:19;96802.22;;;-1.64;100.00
61484;BME280;47349;55.640;37.692;2024-01-11T04:27:49;96828.66;;;-1.66;100.00
61484;BME280;47349;55.640;37.692;2024-01-11T04:30:16;96830.59;;;-1.60;100.00
61484;BME280;47349;55.640;37.692;2024-01-11T04:32:43;96843.22;;;-1.55;100.00
61484;BME280;47349;55.640;37.692;2024-01-11T04:35:11;96827.25;;;-1.45;100.00
61484;BME280;47349;55.640;37.692;2024-01-11T04:37:38;96786.06;;;-1.45;100.00
61484;BME280;47349;55.640;37.692;2024-01-11T04:40:06;96801.66;;;-1.43;100.00
61484;BME280;47349;55.640;37.692;2024-01-11T04:42:39;96823.78;;;-1.38;100.00
61484;BME280;47349;55.640;37.692;2024-01-11T04:45:06;96794.38;;;-1.33;100.00
61484;BME280;47349;55.640;37.692;2024-01-11T04:47:34;96791.41;;;-1.30;100.00
61484;BME280;47349;55.640;37.692;2024-01-11T04:50:11;96830.47;;;-1.27;100.00
61484;BME280;47349;55.640;37.692;2024-01-11T04:52:38;96800.56;;;-1.26;100.00
61484;BME280;47349;55.640;37.692;2024-01-11T04:55:06;96801.84;;;-1.22;100.00
61484;BME280;47349;55.640;37.692;2024-01-11T04:57:34;96816.97;;;-1.16;100.00
61484;BME280;47349;55.640;37.692;2024-01-11T05:00:06;96783.44;;;-1.14;100.00
61484;BME280;47349;55.640;37.692;2024-01-11T05:02:33;96768.56;;;-1.07;100.00
61484;BME280;47349;55.640;37.692;2024-01-11T05:05:04;96759.44;;;-1.11;100.00
61484;BME280;47349;55.640;37.692;2024-01-11T05:07:32;96771.88;;;-1.05;100.00
61484;BME280;47349;55.640;37.692;2024-01-11T05:10:01;96782.19;;;-1.03;100.00
61484;BME280;47349;55.640;37.692;2024-01-11T05:12:34;96752.47;;;-1.04;100.00
61484;BME280;47349;55.640;37.692;2024-01-11T05:15:17;96775.13;;;-1.02;100.00
61484;BME280;47349;55.640;37.692;2024-01-11T05:17:48;96745.25;;;-1.01;100.00
61484;BME280;47349;55.640;37.692;2024-01-11T05:20:19;96758.06;;;-1.07;100.00
61484;BME280;47349;55.640;37.692;2024-01-11T05:22:47;96776.78;;;-1.01;100.00
61484;BME280;47349;55.640;37.692;2024-01-11T05:25:20;96750.13;;;-0.98;100.00
61484;BME280;47349;55.640;37.692;2024-01-11T05:27:47;96788.56;;;-0.97;100.00
61484;BME280;47349;55.640;37.692;2024-01-11T05:30:18;96754.69;;;-0.92;100.00
61484;BME280;47349;55.640;37.692;2024-01-11T05:32:48;96787.22;;;-0.93;100.00
61484;BME280;47349;55.640;37.692;2024-01-11T05:35:18;96720.50;;;-0.92;100.00
61484;BME280;47349;55.640;37.692;2024-01-11T05:37:46;96740.72;;;-0.93;100.00
61484;BME280;47349;55.640;37.692;2024-01-11T05:58:54;96745.88;;;-0.76;100.00
61484;BME280;47349;55.640;37.692;2024-01-11T06:01:26;96748.59;;;-0.70;100.00
61484;BME280;47349;55.640;37.692;2024-01-11T06:03:55;96712.78;;;-0.71;100.00
61484;BME280;47349;55.640;37.692;2024-01-11T06:06:23;96747.31;;;-0.74;100.00
61484;BME280;47349;55.640;37.692;2024-01-11T06:08:53;96703.91;;;-0.70;100.00
61484;BME280;47349;55.640;37.692;2024-01-11T06:11:38;96709.69;;;-0.74;100.00
61484;BME280;47349;55.640;37.692;2024-01-11T06:14:15;96706.88;;;-0.73;100.00
61484;BME280;47349;55.640;37.692;2024-01-11T06:16:49;96700.97;;;-0.75;100.00
61484;BME280;47349;55.640;37.692;2024-01-11T06:19:22;96694.38;;;-0.71;100.00
61484;BME280;47349;55.640;37.692;2024-01-11T06:21:57;96724.75;;;-0.68;100.00
61484;BME280;47349;55.640;37.692;2024-01-11T06:24:53;96697.63;;;-0.69;100.00
61484;BME280;47349;55.640;37.692;2024-01-11T06:39:46;96673.28;;;-0.63;100.00
61484;BME280;47349;55.640;37.692;2024-01-11T06:42:14;96700.09;;;-0.67;100.00
61484;BME280;47349;55.640;37.692;2024-01-11T06:44:46;96679.97;;;-0.60;100.00
61484;BME280;47349;55.640;37.692;2024-01-11T06:47:15;96679.25;;;-0.54;100.00
61484;BME280;47349;55.640;37.692;2024-01-11T06:49:45;96674.44;;;-0.50;100.00
61484;BME280;47349;55.640;37.692;2024-01-11T06:52:16;96665.56;;;-0.49;100.00
61484;BME280;47349;55.640;37.692;2024-01-11T06:55:04;96666.56;;;-0.50;100.00
61484;BME280;47349;55.640;37.692;2024-01-11T06:57:33;96655.03;;;-0.49;100.00
61484;BME280;47349;55.640;37.692;2024-01-11T07:00:06;96685.91;;;-0.43;100.00
61484;BME280;47349;55.640;37.692;2024-01-11T07:02:38;96697.50;;;-0.53;100.00
61484;BME280;47349;55.640;37.692;2024-01-11T07:05:07;96685.25;;;-0.45;100.00
61484;BME280;47349;55.640;37.692;2024-01-11T07:07:35;96685.53;;;-0.40;100.00
61484;BME280;47349;55.640;37.692;2024-01-11T07:10:02;96664.00;;;-0.29;100.00
61484;BME280;47349;55.640;37.692;2024-01-11T07:12:32;96676.00;;;-0.27;100.00
61484;BME280;47349;55.640;37.692;2024-01-11T07:15:07;96680.91;;;-0.23;100.00
61484;BME280;47349;55.640;37.692;2024-01-11T07:17:35;96658.03;;;-0.23;100.00
61484;BME280;47349;55.640;37.692;2024-01-11T07:20:02;96678.63;;;-0.27;100.00
61484;BME280;47349;55.640;37.692;2024-01-11T07:22:31;96654.69;;;-0.17;100.00
61484;BME280;47349;55.640;37.692;2024-01-11T07:25:02;96638.44;;;-0.20;100.00
61484;BME280;47349;55.640;37.692;2024-01-11T07:27:33;96646.25;;;-0.27;100.00
61484;BME280;47349;55.640;37.692;2024-01-11T07:30:04;96648.97;;;-0.35;100.00
61484;BME280;47349;55.640;37.692;2024-01-11T07:32:33;96636.63;;;-0.35;100.00
61484;BME280;47349;55.640;37.692;2024-01-11T07:35:01;96633.91;;;-0.27;100.00
61484;BME280;47349;55.640;37.692;2024-01-11T07:37:29;96629.81;;;-0.29;100.00
61484;BME280;47349;55.640;37.692;2024-01-11T07:40:01;96640.31;;;-0.29;100.00
61484;BME280;47349;55.640;37.692;2024-01-11T07:42:32;96635.44;;;-0.32;100.00
61484;BME280;47349;55.640;37.692;2024-01-11T07:45:02;96628.91;;;-0.36;100.00
61484;BME280;47349;55.640;37.692;2024-01-11T07:47:34;96620.81;;;-0.35;100.00
61484;BME280;47349;55.640;37.692;2024-01-11T07:50:05;96615.75;;;-0.36;100.00
61484;BME280;47349;55.640;37.692;2024-01-11T07:52:35;96629.72;;;-0.36;100.00
61484;BME280;47349;55.640;37.692;2024-01-11T07:55:04;96618.47;;;-0.30;100.00
61484;BME280;47349;55.640;37.692;2024-01-11T07:57:44;96608.84;;;-0.22;100.00
61484;BME280;47349;55.640;37.692;2024-01-11T08:00:47;96621.06;;;-0.15;100.00
61484;BME280;47349;55.640;37.692;2024-01-11T08:03:17;96621.06;;;-0.15;100.00
61484;BME280;47349;55.640;37.692;2024-01-11T08:05:49;96605.94;;;-0.13;100.00
61484;BME280;47349;55.640;37.692;2024-01-11T08:08:19;96587.13;;;-0.10;100.00
61484;BME280;47349;55.640;37.692;2024-01-11T08:10:51;96589.34;;;-0.13;100.00
61484;BME280;47349;55.640;37.692;2024-01-11T08:13:30;96587.72;;;-0.14;100.00
61484;BME280;47349;55.640;37.692;2024-01-11T08:16:03;96585.50;;;-0.11;100.00
61484;BME280;47349;55.640;37.692;2024-01-11T08:18:31;96617.22;;;-0.19;100.00
61484;BME280;47349;55.640;37.692;2024-01-11T08:21:04;96608.56;;;-0.13;100.00
61484;BME280;47349;55.640;37.692;2024-01-11T08:23:40;96575.34;;;-0.14;100.00
61484;BME280;47349;55.640;37.692;2024-01-11T08:26:13;96576.00;;;-0.27;100.00
61484;BME280;47349;55.640;37.692;2024-01-11T08:28:47;96590.00;;;-0.41;100.00
61484;BME280;47349;55.640;37.692;2024-01-11T08:31:16;96571.38;;;-0.39;100.00
61484;BME280;47349;55.640;37.692;2024-01-11T08:33:47;96592.00;;;-0.43;100.00
61484;BME280;47349;55.640;37.692;2024-01-11T08:36:23;96575.22;;;-0.57;100.00
61484;BME280;47349;55.640;37.692;2024-01-11T08:38:51;96576.50;;;-0.53;100.00
61484;BME280;47349;55.640;37.692;2024-01-11T08:41:32;96566.88;;;-0.45;100.00
61484;BME280;47349;55.640;37.692;2024-01-11T08:44:02;96575.50;;;-0.52;100.00
61484;BME280;47349;55.640;37.692;2024-01-11T08:46:33;96574.84;;;-0.54;100.00
61484;BME280;47349;55.640;37.692;2024-01-11T08:49:04;96560.06;;;-0.55;100.00
61484;BME280;47349;55.640;37.692;2024-01-11T08:51:34;96570.31;;;-0.60;100.00
61484;BME280;47349;55.640;37.692;2024-01-11T08:54:01;96552.56;;;-0.58;100.00
61484;BME280;47349;55.640;37.692;2024-01-11T08:56:41;96551.38;;;-0.55;100.00
61484;BME280;47349;55.640;37.692;2024-01-11T08:59:24;96549.09;;;-0.43;100.00
61484;BME280;47349;55.640;37.692;2024-01-11T09:02:03;96573.84;;;-0.38;100.00
61484;BME280;47349;55.640;37.692;2024-01-11T09:04:58;96535.75;;;-0.42;100.00
61484;BME280;47349;55.640;37.692;2024-01-11T09:07:30;96517.88;;;-0.46;100.00
61484;BME280;47349;55.640;37.692;2024-01-11T09:10:30;96601.25;;;-0.62;100.00
61484;BME280;47349;55.640;37.692;2024-01-11T09:12:57;96667.22;;;-1.24;100.00
61484;BME280;47349;55.640;37.692;2024-01-11T09:35:22;96671.03;;;-2.83;100.00
61484;BME280;47349;55.640;37.692;2024-01-11T09:38:34;96662.38;;;-3.08;100.00
61484;BME280;47349;55.640;37.692;2024-01-11T09:42:06;96669.91;;;-3.14;100.00
61484;BME280;47349;55.640;37.692;2024-01-11T09:49:53;96670.56;;;-3.03;100.00
61484;BME280;47349;55.640;37.692;2024-01-11T09:59:58;96668.28;;;-3.06;100.00
61484;BME280;47349;55.640;37.692;2024-01-11T10:02:40;96675.81;;;-3.12;100.00
61484;BME280;47349;55.640;37.692;2024-01-11T10:05:22;96702.94;;;-3.45;100.00
61484;BME280;47349;55.640;37.692;2024-01-11T10:08:19;96683.41;;;-3.83;100.00
61484;BME280;47349;55.640;37.692;2024-01-11T10:11:05;96708.72;;;-3.92;100.00
61484;BME280;47349;55.640;37.692;2024-01-11T10:13:43;96705.13;;;-3.91;100.00
61484;BME280;47349;55.640;37.692;2024-01-11T10:16:39;96721.47;;;-3.89;100.00
61484;BME280;47349;55.640;37.692;2024-01-11T10:19:29;96739.31;;;-3.84;100.00
61484;BME280;47349;55.640;37.692;2024-01-11T10:22:33;96700.53;;;-3.97;100.00
61484;BME280;47349;55.640;37.692;2024-01-11T10:25:15;96762.25;;;-4.13;100.00
61484;BME280;47349;55.640;37.692;2024-01-11T10:27:58;96785.00;;;-4.39;100.00
61484;BME280;47349;55.640;37.692;2024-01-11T10:30:29;96752.28;;;-4.43;100.00
61484;BME280;47349;55.640;37.692;2024-01-11T10:32:57;96860.72;;;-4.47;100.00
61484;BME280;47349;55.640;37.692;2024-01-11T10:36:10;96803.97;;;-4.55;100.00
61484;BME280;47349;55.640;37.692;2024-01-11T10:39:28;96722.84;;;-4.45;100.00
61484;BME280;47349;55.640;37.692;2024-01-11T10:42:10;96825.78;;;-4.46;100.00
61484;BME280;47349;55.640;37.692;2024-01-11T10:45:14;96810.41;;;-4.49;100.00
61484;BME280;47349;55.640;37.692;2024-01-11T10:48:03;96806.81;;;-4.48;100.00
61484;BME280;47349;55.640;37.692;2024-01-11T10:50:46;96820.53;;;-4.46;100.00
61484;BME280;47349;55.640;37.692;2024-01-11T10:53:46;96834.06;;;-4.51;98.23
61484;BME280;47349;55.640;37.692;2024-01-11T10:56:43;96742.59;;;-4.51;100.00
61484;BME280;47349;55.640;37.692;2024-01-11T10:59:12;96836.03;;;-4.53;99.51
61484;BME280;47349;55.640;37.692;2024-01-11T11:01:58;96804.22;;;-4.48;100.00
61484;BME280;47349;55.640;37.692;2024-01-11T11:08:12;96836.84;;;-4.70;100.00
61484;BME280;47349;55.640;37.692;2024-01-11T11:11:04;96862.47;;;-4.74;100.00
61484;BME280;47349;55.640;37.692;2024-01-11T11:13:51;96912.09;;;-4.92;100.00
61484;BME280;47349;55.640;37.692;2024-01-11T11:16:39;96890.94;;;-5.16;100.00
61484;BME280;47349;55.640;37.692;2024-01-11T11:19:30;96939.00;;;-5.36;100.00
61484;BME280;47349;55.640;37.692;2024-01-11T11:22:39;96918.91;;;-5.63;100.00
61484;BME280;47349;55.640;37.692;2024-01-11T11:25:23;96939.69;;;-5.81;100.00
61484;BME280;47349;55.640;37.692;2024-01-11T11:27:53;96928.38;;;-6.09;100.00
61484;BME280;47349;55.640;37.692;2024-01-11T11:30:28;96994.09;;;-6.35;100.00
61484;BME280;47349;55.640;37.692;2024-01-11T11:33:22;96971.75;;;-6.57;100.00
61484;BME280;47349;55.640;37.692;2024-01-11T11:36:11;97011.47;;;-6.64;100.00
61484;BME280;47349;55.640;37.692;2024-01-11T11:39:11;96977.22;;;-6.69;100.00
61484;BME280;47349;55.640;37.692;2024-01-11T11:41:39;97012.81;;;-6.80;100.00
61484;BME280;47349;55.640;37.692;2024-01-11T11:44:50;96945.22;;;-7.10;100.00
61484;BME280;47349;55.640;37.692;2024-01-11T11:47:23;97021.38;;;-7.08;100.00
61484;BME280;47349;55.640;37.692;2024-01-11T11:50:08;97026.94;;;-7.22;100.00
61484;BME280;47349;55.640;37.692;2024-01-11T11:52:40;97035.94;;;-7.27;100.00
61484;BME280;47349;55.640;37.692;2024-01-11T11:55:10;97026.44;;;-7.37;100.00
61484;BME280;47349;55.640;37.692;2024-01-11T11:57:42;96969.47;;;-7.40;100.00
61484;BME280;47349;55.640;37.692;2024-01-11T12:00:11;96998.09;;;-7.40;100.00
61484;BME280;47349;55.640;37.692;2024-01-11T12:02:43;97071.00;;;-7.52;100.00
61484;BME280;47349;55.640;37.692;2024-01-11T12:05:20;97052.28;;;-7.66;100.00
61484;BME280;47349;55.640;37.692;2024-01-11T12:07:48;97128.97;;;-7.82;100.00
61484;BME280;47349;55.640;37.692;2024-01-11T12:10:34;97091.78;;;-7.93;100.00
61484;BME280;47349;55.640;37.692;2024-01-11T12:13:06;97070.91;;;-8.03;100.00
61484;BME280;47349;55.640;37.692;2024-01-11T12:19:00;97101.53;;;-8.07;100.00
61484;BME280;47349;55.640;37.692;2024-01-11T12:22:09;97067.03;;;-8.09;100.00
61484;BME280;47349;55.640;37.692;2024-01-11T12:25:20;97064.13;;;-8.15;100.00
61484;BME280;47349;55.640;37.692;2024-01-11T12:28:02;97071.19;;;-8.17;100.00
61484;BME280;47349;55.640;37.692;2024-01-11T12:30:44;97101.91;;;-8.22;100.00
61484;BME280;47349;55.640;37.692;2024-01-11T12:33:50;97088.91;;;-8.22;100.00
61484;BME280;47349;55.640;37.692;2024-01-11T12:36:41;97059.78;;;-8.26;100.00
61484;BME280;47349;55.640;37.692;2024-01-11T12:39:12;97106.66;;;-8.28;100.00
61484;BME280;47349;55.640;37.692;2024-01-11T12:42:03;97127.22;;;-8.36;100.00
61484;BME280;47349;55.640;37.692;2024-01-11T12:45:35;97094.69;;;-8.40;100.00
61484;BME280;47349;55.640;37.692;2024-01-11T12:48:18;97102.00;;;-8.45;100.00
61484;BME280;47349;55.640;37.692;2024-01-11T12:51:21;97157.97;;;-8.52;100.00
61484;BME280;47349;55.640;37.692;2024-01-11T12:53:51;97178.16;;;-8.67;100.00
61484;BME280;47349;55.640;37.692;2024-01-11T12:56:32;97121.53;;;-8.73;100.00
61484;BME280;47349;55.640;37.692;2024-01-11T12:59:16;97164.69;;;-8.72;100.00
61484;BME280;47349;55.640;37.692;2024-01-11T13:06:04;97155.38;;;-8.97;100.00
61484;BME280;47349;55.640;37.692;2024-01-11T13:09:14;97168.56;;;-9.11;100.00
61484;BME280;47349;55.640;37.692;2024-01-11T13:12:12;97253.09;;;-9.20;100.00
61484;BME280;47349;55.640;37.692;2024-01-11T13:18:32;97196.13;;;-9.33;100.00
61484;BME280;47349;55.640;37.692;2024-01-11T13:21:17;97231.22;;;-9.40;100.00
61484;BME280;47349;55.640;37.692;2024-01-11T13:24:49;97155.66;;;-9.35;100.00
61484;BME280;47349;55.640;37.692;2024-01-11T13:27:38;97187.00;;;-9.38;100.00
61484;BME280;47349;55.640;37.692;2024-01-11T13:30:06;97185.25;;;-9.38;100.00
61484;BME280;47349;55.640;37.692;2024-01-11T13:32:59;97185.97;;;-9.36;100.00
61484;BME280;47349;55.640;37.692;2024-01-11T13:35:51;97202.22;;;-9.34;100.00
61484;BME280;47349;55.640;37.692;2024-01-11T13:38:40;97219.34;;;-9.31;100.00
61484;BME280;47349;55.640;37.692;2024-01-11T13:41:07;97216.88;;;-9.33;100.00
61484;BME280;47349;55.640;37.692;2024-01-11T13:49:56;97230.19;;;-9.37;100.00
61484;BME280;47349;55.640;37.692;2024-01-11T13:52:23;97214.00;;;-9.41;100.00
61484;BME280;47349;55.640;37.692;2024-01-11T13:55:10;97272.69;;;-9.40;100.00
61484;BME280;47349;55.640;37.692;2024-01-11T13:57:39;97236.19;;;-9.37;100.00
61484;BME280;47349;55.640;37.692;2024-01-11T14:00:09;97206.72;;;-9.36;100.00
61484;BME280;47349;55.640;37.692;2024-01-11T14:06:21;97215.91;;;-9.32;100.00
61484;BME280;47349;55.640;37.692;2024-01-11T14:10:01;97239.97;;;-9.29;100.00
61484;BME280;47349;55.640;37.692;2024-01-11T14:12:45;97281.31;;;-9.39;100.00
61484;BME280;47349;55.640;37.692;2024-01-11T14:15:51;97292.63;;;-9.40;100.00
61484;BME280;47349;55.640;37.692;2024-01-11T14:18:39;97295.91;;;-9.38;100.00
61484;BME280;47349;55.640;37.692;2024-01-11T14:21:07;97242.31;;;-9.38;100.00
61484;BME280;47349;55.640;37.692;2024-01-11T14:23:49;97281.44;;;-9.41;100.00
61484;BME280;47349;55.640;37.692;2024-01-11T14:26:33;97229.69;;;-9.42;100.00
61484;BME280;47349;55.640;37.692;2024-01-11T14:29:01;97254.88;;;-9.44;100.00
61484;BME280;47349;55.640;37.692;2024-01-11T14:31:46;97249.09;;;-9.48;100.00
61484;BME280;47349;55.640;37.692;2024-01-11T14:34:27;97258.53;;;-9.47;100.00
61484;BME280;47349;55.640;37.692;2024-01-11T14:37:07;97280.19;;;-9.48;100.00
61484;BME280;47349;55.640;37.692;2024-01-11T14:40:47;97277.19;;;-9.42;100.00
61484;BME280;47349;55.640;37.692;2024-01-11T14:43:14;97262.53;;;-9.43;100.00
61484;BME280;47349;55.640;37.692;2024-01-11T14:45:46;97312.16;;;-9.47;100.00
61484;BME280;47349;55.640;37.692;2024-01-11T14:48:24;97270.56;;;-9.46;100.00
61484;BME280;47349;55.640;37.692;2024-01-11T14:51:10;97280.47;;;-9.40;100.00